Fort Severn Airport

CYER · 加拿大

METAR CYER · Fort Severn Airport

18 五月 19:00 LT
34m
罗盘
风向 的 风向 070° Fort Severn Airport 15/33
风向 到 风: 13 kt, 阵阵 20 kt, 4 beaufort

4 kt

12 kt
改变
0 ft 1.000 2.000 3.000 4.000 5.000
Cloud Cloud Cloud Cloud Cloud Cloud Cloud Cloud
OVC 800
METAR CYER 182300Z AUTO 07013G20KT 9SM OVC008 02/02 A2984 RMK SLP106

METAR Fort Severn Airport - CYER/YER

该字段位于加拿大中。 该机场位于纬度56,01896和经度-87,67622。 该机场有一条跑道: 15/33. 本场的ICAO机场代码为CYER。 该机场的IATA代码为YER。 机场在Winnipeg FIR中。

该航空气象观测是针对Fort Severn Airport在2024年5月18日 19:00, 当地时间进行的。

机场观察

风向为070°,速度为13 kt。 已测得20 kt的阵风。

可见度为9 mi。

有乌云密布在800 ft的高度。 破损或更高的上限为800 ft。

温度为2 °C,阵风为-5 °C。 露点为2 °C,相对湿度为100%。 海平面上的气压为29,84 inHg (QNH)。

白天

今天,太阳从05:30升起,在22:03降落。 这适用于Fort Severn Airport,世界夏令时可能有所不同。 当地时间与世界标准时间之间的时差为-4 小时。 夏令时目前正在进行中。

公司介绍

我们没有关于这个机场的公司信息。

体会

到Vliegles.nl去找飞行课程,跳伞和其他飞行体验。 浏览页面,了解Fort Severn Airport附近所有可用的活动。 你也可以使用搜索功能来寻找你所在地附近的特定飞行课程、跳伞或其他飞行体验。

跑道

Id 标题 侧风 逆风 侧风 %
15/33 142°-322° 12-19 kt 4-6 kt 95 %

逆风成分最大的方向会被突出显示,并用于横风计算。 这并不一定意味着这个方向在使用。

乌云

800 ft OVC 乌云密布

温度 & 天气

温度 2 °C
露点 2 °C
相对湿度 100%
风寒 -5 °C
Kp-index 1 (0-9)

评论

SLP106海平面压力为29,84 inHg (29,84 inHg)

白天

日出
05:30
中午
13:47
日落
22:03 (2:30)

小工具

你想在你的网站上有一个关于Fort Severn Airport的当前航空天气(METAR)的小部件吗?

显示HTML代码
报告变更